sensor_id;sensor_type;location;lat;lon;timestamp;pressure;altitude;pressure_sealevel;temperature;humidity
49835;BME280;35729;52.090;13.162;2023-11-19T00:00:27;100989.84;;;4.14;85.77
49835;BME280;35729;52.090;13.162;2023-11-19T00:02:55;100981.22;;;4.15;85.45
49835;BME280;35729;52.090;13.162;2023-11-19T00:05:24;100971.69;;;4.17;85.68
49835;BME280;35729;52.090;13.162;2023-11-19T00:07:53;100963.94;;;4.18;84.84
49835;BME280;35729;52.090;13.162;2023-11-19T00:10:24;100952.69;;;4.21;85.40
49835;BME280;35729;52.090;13.162;2023-11-19T00:12:52;100934.53;;;4.21;85.62
49835;BME280;35729;52.090;13.162;2023-11-19T00:15:22;100937.13;;;4.24;85.87
49835;BME280;35729;52.090;13.162;2023-11-19T00:17:51;100951.00;;;4.26;85.94
49835;BME280;35729;52.090;13.162;2023-11-19T00:20:20;100946.66;;;4.27;85.40
49835;BME280;35729;52.090;13.162;2023-11-19T00:22:50;100938.88;;;4.28;85.45
49835;BME280;35729;52.090;13.162;2023-11-19T00:25:19;100919.84;;;4.29;85.78
49835;BME280;35729;52.090;13.162;2023-11-19T00:27:49;100923.34;;;4.31;85.92
49835;BME280;35729;52.090;13.162;2023-11-19T00:30:19;100916.41;;;4.33;85.90
49835;BME280;35729;52.090;13.162;2023-11-19T00:32:48;100925.94;;;4.34;86.19
49835;BME280;35729;52.090;13.162;2023-11-19T00:35:17;100932.03;;;4.36;86.13
49835;BME280;35729;52.090;13.162;2023-11-19T00:37:45;100918.19;;;4.37;86.19
49835;BME280;35729;52.090;13.162;2023-11-19T00:40:15;100907.78;;;4.39;85.72
49835;BME280;35729;52.090;13.162;2023-11-19T00:42:49;100900.00;;;4.40;85.80
49835;BME280;35729;52.090;13.162;2023-11-19T00:45:18;100894.84;;;4.44;86.01
49835;BME280;35729;52.090;13.162;2023-11-19T00:47:46;100882.72;;;4.44;85.50
49835;BME280;35729;52.090;13.162;2023-11-19T00:50:15;100868.00;;;4.46;85.87
49835;BME280;35729;52.090;13.162;2023-11-19T00:52:43;100851.53;;;4.47;85.80
49835;BME280;35729;52.090;13.162;2023-11-19T00:55:12;100836.84;;;4.48;85.69
49835;BME280;35729;52.090;13.162;2023-11-19T00:57:41;100832.50;;;4.50;85.38
49835;BME280;35729;52.090;13.162;2023-11-19T01:00:13;100823.84;;;4.51;85.81
49835;BME280;35729;52.090;13.162;2023-11-19T01:02:43;100811.72;;;4.50;84.79
49835;BME280;35729;52.090;13.162;2023-11-19T01:05:12;100815.19;;;4.50;85.52
49835;BME280;35729;52.090;13.162;2023-11-19T01:07:42;100808.25;;;4.51;85.72
49835;BME280;35729;52.090;13.162;2023-11-19T01:10:10;100793.56;;;4.53;85.92
49835;BME280;35729;52.090;13.162;2023-11-19T01:12:39;100790.97;;;4.53;85.73
49835;BME280;35729;52.090;13.162;2023-11-19T01:15:08;100798.75;;;4.53;85.94
49835;BME280;35729;52.090;13.162;2023-11-19T01:17:39;100786.66;;;4.55;85.92
49835;BME280;35729;52.090;13.162;2023-11-19T01:20:10;100767.56;;;4.53;85.93
49835;BME280;35729;52.090;13.162;2023-11-19T01:22:39;100758.03;;;4.53;85.91
49835;BME280;35729;52.090;13.162;2023-11-19T01:25:08;100753.69;;;4.52;86.21
49835;BME280;35729;52.090;13.162;2023-11-19T01:27:36;100748.50;;;4.52;86.38
49835;BME280;35729;52.090;13.162;2023-11-19T01:30:06;100729.44;;;4.52;86.25
49835;BME280;35729;52.090;13.162;2023-11-19T01:32:41;100725.09;;;4.52;86.33
49835;BME280;35729;52.090;13.162;2023-11-19T01:35:09;100713.88;;;4.50;86.24
49835;BME280;35729;52.090;13.162;2023-11-19T01:37:45;100713.84;;;4.52;86.65
49835;BME280;35729;52.090;13.162;2023-11-19T01:40:13;100729.44;;;4.50;86.58
49835;BME280;35729;52.090;13.162;2023-11-19T01:42:43;100717.31;;;4.49;86.64
49835;BME280;35729;52.090;13.162;2023-11-19T01:45:22;100714.72;;;4.48;86.44
49835;BME280;35729;52.090;13.162;2023-11-19T01:47:56;100708.66;;;4.46;86.57
49835;BME280;35729;52.090;13.162;2023-11-19T01:50:25;100712.13;;;4.46;86.96
49835;BME280;35729;52.090;13.162;2023-11-19T01:53:01;100700.84;;;4.46;86.80
49835;BME280;35729;52.090;13.162;2023-11-19T01:55:29;100683.53;;;4.45;86.85
49835;BME280;35729;52.090;13.162;2023-11-19T01:58:00;100675.72;;;4.45;87.24
49835;BME280;35729;52.090;13.162;2023-11-19T02:00:30;100684.41;;;4.45;87.19
49835;BME280;35729;52.090;13.162;2023-11-19T02:03:03;100668.81;;;4.45;87.40
49835;BME280;35729;52.090;13.162;2023-11-19T02:05:32;100655.84;;;4.44;86.96
49835;BME280;35729;52.090;13.162;2023-11-19T02:08:01;100661.00;;;4.42;87.31
49835;BME280;35729;52.090;13.162;2023-11-19T02:10:29;100663.63;;;4.44;87.34
49835;BME280;35729;52.090;13.162;2023-11-19T02:12:58;100642.84;;;4.44;87.44
49835;BME280;35729;52.090;13.162;2023-11-19T02:15:26;100631.56;;;4.43;87.56
49835;BME280;35729;52.090;13.162;2023-11-19T02:17:55;100620.31;;;4.44;87.79
49835;BME280;35729;52.090;13.162;2023-11-19T02:20:48;100590.88;;;4.44;87.74
49835;BME280;35729;52.090;13.162;2023-11-19T02:23:23;100570.97;;;4.44;87.91
49835;BME280;35729;52.090;13.162;2023-11-19T02:26:17;100569.22;;;4.45;87.89
49835;BME280;35729;52.090;13.162;2023-11-19T02:28:49;100569.22;;;4.45;88.28
49835;BME280;35729;52.090;13.162;2023-11-19T02:31:18;100564.03;;;4.45;88.30
49835;BME280;35729;52.090;13.162;2023-11-19T02:33:48;100558.84;;;4.42;88.53
49835;BME280;35729;52.090;13.162;2023-11-19T02:36:17;100564.03;;;4.43;88.73
49835;BME280;35729;52.090;13.162;2023-11-19T02:38:47;100561.41;;;4.45;88.99
49835;BME280;35729;52.090;13.162;2023-11-19T02:41:15;100540.63;;;4.45;88.86
49835;BME280;35729;52.090;13.162;2023-11-19T02:43:44;100519.00;;;4.44;88.97
49835;BME280;35729;52.090;13.162;2023-11-19T02:46:16;100517.25;;;4.43;89.01
49835;BME280;35729;52.090;13.162;2023-11-19T02:48:45;100519.00;;;4.44;89.39
49835;BME280;35729;52.090;13.162;2023-11-19T02:51:14;100540.63;;;4.45;89.67
49835;BME280;35729;52.090;13.162;2023-11-19T02:53:44;100529.38;;;4.46;89.75
49835;BME280;35729;52.090;13.162;2023-11-19T02:56:13;100520.72;;;4.47;89.66
49835;BME280;35729;52.090;13.162;2023-11-19T02:58:50;100517.28;;;4.48;89.71
49835;BME280;35729;52.090;13.162;2023-11-19T03:01:25;100516.41;;;4.49;90.10
49835;BME280;35729;52.090;13.162;2023-11-19T03:04:00;100519.00;;;4.49;90.27
49835;BME280;35729;52.090;13.162;2023-11-19T03:06:29;100509.47;;;4.48;90.61
49835;BME280;35729;52.090;13.162;2023-11-19T03:08:57;100505.13;;;4.50;90.98
49835;BME280;35729;52.090;13.162;2023-11-19T03:11:31;100488.69;;;4.48;91.19
49835;BME280;35729;52.090;13.162;2023-11-19T03:13:59;100481.75;;;4.47;91.83
49835;BME280;35729;52.090;13.162;2023-11-19T03:16:31;100480.03;;;4.46;92.03
49835;BME280;35729;52.090;13.162;2023-11-19T03:18:59;100453.22;;;4.44;92.39
49835;BME280;35729;52.090;13.162;2023-11-19T03:21:30;100448.00;;;4.40;92.96
49835;BME280;35729;52.090;13.162;2023-11-19T03:23:58;100441.94;;;4.37;93.38
49835;BME280;35729;52.090;13.162;2023-11-19T03:26:27;100423.75;;;4.31;94.25
49835;BME280;35729;52.090;13.162;2023-11-19T03:28:55;100430.72;;;4.29;94.42
49835;BME280;35729;52.090;13.162;2023-11-19T03:31:24;100402.13;;;4.24;94.91
49835;BME280;35729;52.090;13.162;2023-11-19T03:33:55;100408.22;;;4.18;95.85
49835;BME280;35729;52.090;13.162;2023-11-19T03:36:24;100419.44;;;4.13;97.11
49835;BME280;35729;52.090;13.162;2023-11-19T03:38:52;100436.75;;;4.07;96.67
49835;BME280;35729;52.090;13.162;2023-11-19T03:41:20;100441.09;;;4.04;96.43
49835;BME280;35729;52.090;13.162;2023-11-19T03:43:49;100436.75;;;4.01;97.17
49835;BME280;35729;52.090;13.162;2023-11-19T03:46:18;100421.19;;;3.98;98.33
49835;BME280;35729;52.090;13.162;2023-11-19T03:48:47;100400.41;;;3.95;99.62
49835;BME280;35729;52.090;13.162;2023-11-19T03:51:18;100396.97;;;3.93;100.00
49835;BME280;35729;52.090;13.162;2023-11-19T03:53:47;100384.00;;;3.88;100.00
49835;BME280;35729;52.090;13.162;2023-11-19T03:56:16;100387.44;;;3.87;100.00
49835;BME280;35729;52.090;13.162;2023-11-19T03:58:46;100385.72;;;3.85;100.00
49835;BME280;35729;52.090;13.162;2023-11-19T04:01:14;100376.19;;;3.84;100.00
49835;BME280;35729;52.090;13.162;2023-11-19T04:03:43;100369.25;;;3.83;100.00
49835;BME280;35729;52.090;13.162;2023-11-19T04:06:11;100371.88;;;3.81;100.00
49835;BME280;35729;52.090;13.162;2023-11-19T04:08:49;100361.50;;;3.81;100.00
49835;BME280;35729;52.090;13.162;2023-11-19T04:11:17;100350.25;;;3.81;100.00
49835;BME280;35729;52.090;13.162;2023-11-19T04:13:46;100339.88;;;3.81;100.00
49835;BME280;35729;52.090;13.162;2023-11-19T04:16:14;100334.69;;;3.81;100.00
49835;BME280;35729;52.090;13.162;2023-11-19T04:18:43;100332.09;;;3.81;100.00
49835;BME280;35729;52.090;13.162;2023-11-19T04:21:11;100326.00;;;3.80;100.00
49835;BME280;35729;52.090;13.162;2023-11-19T04:23:40;100315.66;;;3.82;100.00
49835;BME280;35729;52.090;13.162;2023-11-19T04:26:11;100296.59;;;3.81;100.00
49835;BME280;35729;52.090;13.162;2023-11-19T04:28:39;100296.59;;;3.81;100.00
49835;BME280;35729;52.090;13.162;2023-11-19T04:31:08;100301.78;;;3.83;100.00
49835;BME280;35729;52.090;13.162;2023-11-19T04:33:36;100289.69;;;3.83;100.00
49835;BME280;35729;52.090;13.162;2023-11-19T04:36:06;100283.63;;;3.83;100.00
49835;BME280;35729;52.090;13.162;2023-11-19T04:38:35;100282.75;;;3.84;100.00
49835;BME280;35729;52.090;13.162;2023-11-19T04:41:04;100269.78;;;3.85;100.00
49835;BME280;35729;52.090;13.162;2023-11-19T04:43:36;100280.19;;;3.87;100.00
49835;BME280;35729;52.090;13.162;2023-11-19T04:46:05;100268.03;;;3.89;100.00
49835;BME280;35729;52.090;13.162;2023-11-19T04:48:34;100261.16;;;3.89;100.00
49835;BME280;35729;52.090;13.162;2023-11-19T04:51:04;100248.16;;;3.91;100.00
49835;BME280;35729;52.090;13.162;2023-11-19T04:53:34;100254.19;;;3.91;100.00
49835;BME280;35729;52.090;13.162;2023-11-19T04:56:07;100250.75;;;3.92;100.00
49835;BME280;35729;52.090;13.162;2023-11-19T04:58:39;100241.25;;;3.93;100.00
49835;BME280;35729;52.090;13.162;2023-11-19T05:01:13;100225.66;;;3.95;100.00
49835;BME280;35729;52.090;13.162;2023-11-19T05:03:44;100211.81;;;3.97;100.00
49835;BME280;35729;52.090;13.162;2023-11-19T05:06:12;100204.84;;;3.99;100.00
49835;BME280;35729;52.090;13.162;2023-11-19T05:08:40;100189.28;;;3.99;100.00
49835;BME280;35729;52.090;13.162;2023-11-19T05:11:09;100195.34;;;4.01;100.00
49835;BME280;35729;52.090;13.162;2023-11-19T05:13:45;100191.88;;;4.02;100.00
49835;BME280;35729;52.090;13.162;2023-11-19T05:16:14;100196.19;;;4.05;100.00
49835;BME280;35729;52.090;13.162;2023-11-19T05:18:43;100208.31;;;4.06;100.00
49835;BME280;35729;52.090;13.162;2023-11-19T05:21:11;100200.50;;;4.07;100.00
49835;BME280;35729;52.090;13.162;2023-11-19T05:23:40;100206.56;;;4.10;100.00
49835;BME280;35729;52.090;13.162;2023-11-19T05:26:08;100201.34;;;4.13;100.00
49835;BME280;35729;52.090;13.162;2023-11-19T05:28:38;100201.34;;;4.14;100.00
49835;BME280;35729;52.090;13.162;2023-11-19T05:31:09;100188.38;;;4.16;100.00
49835;BME280;35729;52.090;13.162;2023-11-19T05:33:37;100186.63;;;4.16;100.00
49835;BME280;35729;52.090;13.162;2023-11-19T05:36:06;100180.56;;;4.19;100.00
49835;BME280;35729;52.090;13.162;2023-11-19T05:38:36;100201.31;;;4.22;100.00
49835;BME280;35729;52.090;13.162;2023-11-19T05:41:05;100190.06;;;4.23;100.00
49835;BME280;35729;52.090;13.162;2023-11-19T05:43:34;100183.13;;;4.25;100.00
49835;BME280;35729;52.090;13.162;2023-11-19T05:46:03;100164.97;;;4.25;100.00
49835;BME280;35729;52.090;13.162;2023-11-19T05:48:34;100169.28;;;4.26;100.00
49835;BME280;35729;52.090;13.162;2023-11-19T05:51:04;100171.88;;;4.28;100.00
49835;BME280;35729;52.090;13.162;2023-11-19T05:53:32;100176.19;;;4.30;100.00
49835;BME280;35729;52.090;13.162;2023-11-19T05:56:01;100189.16;;;4.30;100.00
49835;BME280;35729;52.090;13.162;2023-11-19T05:58:29;100175.31;;;4.31;100.00
49835;BME280;35729;52.090;13.162;2023-11-19T06:00:58;100178.75;;;4.33;100.00
49835;BME280;35729;52.090;13.162;2023-11-19T06:03:28;100197.78;;;4.35;100.00
49835;BME280;35729;52.090;13.162;2023-11-19T06:05:59;100177.88;;;4.37;100.00
49835;BME280;35729;52.090;13.162;2023-11-19T06:08:28;100178.72;;;4.39;100.00
49835;BME280;35729;52.090;13.162;2023-11-19T06:10:57;100173.53;;;4.39;100.00
49835;BME280;35729;52.090;13.162;2023-11-19T06:13:26;100177.00;;;4.42;100.00
49835;BME280;35729;52.090;13.162;2023-11-19T06:15:56;100204.69;;;4.43;100.00
49835;BME280;35729;52.090;13.162;2023-11-19T06:18:24;100201.22;;;4.45;100.00
49835;BME280;35729;52.090;13.162;2023-11-19T06:20:53;100185.63;;;4.47;100.00
49835;BME280;35729;52.090;13.162;2023-11-19T06:23:24;100185.59;;;4.50;100.00
49835;BME280;35729;52.090;13.162;2023-11-19T06:25:52;100172.59;;;4.53;100.00
49835;BME280;35729;52.090;13.162;2023-11-19T06:28:20;100157.00;;;4.57;100.00
49835;BME280;35729;52.090;13.162;2023-11-19T06:30:49;100150.00;;;4.66;100.00
49835;BME280;35729;52.090;13.162;2023-11-19T06:33:17;100139.53;;;4.77;100.00
49835;BME280;35729;52.090;13.162;2023-11-19T06:35:46;100129.91;;;4.86;100.00
49835;BME280;35729;52.090;13.162;2023-11-19T06:38:14;100133.28;;;4.96;100.00
49835;BME280;35729;52.090;13.162;2023-11-19T06:40:46;100141.84;;;5.09;100.00
49835;BME280;35729;52.090;13.162;2023-11-19T06:43:14;100138.34;;;5.15;100.00
49835;BME280;35729;52.090;13.162;2023-11-19T06:45:43;100123.59;;;5.14;100.00
49835;BME280;35729;52.090;13.162;2023-11-19T06:48:11;100129.72;;;5.10;100.00
49835;BME280;35729;52.090;13.162;2023-11-19T06:50:40;100123.69;;;5.04;100.00
49835;BME280;35729;52.090;13.162;2023-11-19T06:53:09;100117.63;;;5.02;100.00
49835;BME280;35729;52.090;13.162;2023-11-19T06:55:38;100115.09;;;4.99;100.00
49835;BME280;35729;52.090;13.162;2023-11-19T06:58:09;100111.63;;;4.97;100.00
49835;BME280;35729;52.090;13.162;2023-11-19T07:00:37;100115.06;;;4.98;100.00
49835;BME280;35729;52.090;13.162;2023-11-19T07:03:06;100116.84;;;4.96;100.00
49835;BME280;35729;52.090;13.162;2023-11-19T07:05:36;100115.97;;;4.95;100.00
49835;BME280;35729;52.090;13.162;2023-11-19T07:08:05;100113.38;;;4.95;100.00
49835;BME280;35729;52.090;13.162;2023-11-19T07:10:34;100123.78;;;4.97;100.00
49835;BME280;35729;52.090;13.162;2023-11-19T07:13:03;100119.41;;;4.97;100.00
49835;BME280;35729;52.090;13.162;2023-11-19T07:15:34;100129.81;;;4.99;100.00
49835;BME280;35729;52.090;13.162;2023-11-19T07:18:03;100129.78;;;5.00;100.00
49835;BME280;35729;52.090;13.162;2023-11-19T07:20:31;100115.88;;;5.03;100.00
49835;BME280;35729;52.090;13.162;2023-11-19T07:23:00;100112.44;;;5.05;100.00
49835;BME280;35729;52.090;13.162;2023-11-19T07:25:28;100115.84;;;5.08;100.00
49835;BME280;35729;52.090;13.162;2023-11-19T07:27:57;100119.31;;;5.10;100.00
49835;BME280;35729;52.090;13.162;2023-11-19T07:30:25;100113.22;;;5.14;100.00
49835;BME280;35729;52.090;13.162;2023-11-19T07:32:56;100111.47;;;5.16;100.00
49835;BME280;35729;52.090;13.162;2023-11-19T07:35:25;100114.03;;;5.19;100.00
49835;BME280;35729;52.090;13.162;2023-11-19T07:38:02;100110.50;;;5.23;100.00
49835;BME280;35729;52.090;13.162;2023-11-19T07:40:31;100104.41;;;5.27;100.00
49835;BME280;35729;52.090;13.162;2023-11-19T07:42:59;100103.50;;;5.31;100.00
49835;BME280;35729;52.090;13.162;2023-11-19T07:45:28;100105.19;;;5.35;100.00
49835;BME280;35729;52.090;13.162;2023-11-19T07:47:59;100106.00;;;5.39;100.00
49835;BME280;35729;52.090;13.162;2023-11-19T07:50:28;100114.66;;;5.43;100.00
49835;BME280;35729;52.090;13.162;2023-11-19T07:52:57;100114.59;;;5.46;100.00
49835;BME280;35729;52.090;13.162;2023-11-19T07:55:25;100108.50;;;5.48;100.00
49835;BME280;35729;52.090;13.162;2023-11-19T07:57:54;100121.50;;;5.51;100.00
49835;BME280;35729;52.090;13.162;2023-11-19T08:00:23;100116.25;;;5.56;100.00
49835;BME280;35729;52.090;13.162;2023-11-19T08:02:52;100123.16;;;5.59;100.00
49835;BME280;35729;52.090;13.162;2023-11-19T08:05:23;100119.66;;;5.63;100.00
49835;BME280;35729;52.090;13.162;2023-11-19T08:07:51;100123.94;;;5.67;100.00
49835;BME280;35729;52.090;13.162;2023-11-19T08:10:21;100116.09;;;5.70;100.00
49835;BME280;35729;52.090;13.162;2023-11-19T08:12:49;100105.59;;;5.75;100.00
49835;BME280;35729;52.090;13.162;2023-11-19T08:15:18;100104.69;;;5.80;100.00
49835;BME280;35729;52.090;13.162;2023-11-19T08:17:46;100097.69;;;5.85;100.00
49835;BME280;35729;52.090;13.162;2023-11-19T08:20:15;100094.97;;;5.93;100.00
49835;BME280;35729;52.090;13.162;2023-11-19T08:22:46;100088.81;;;6.02;100.00
49835;BME280;35729;52.090;13.162;2023-11-19T08:25:15;100089.56;;;6.12;100.00
49835;BME280;35729;52.090;13.162;2023-11-19T08:27:43;100099.81;;;6.23;100.00
49835;BME280;35729;52.090;13.162;2023-11-19T08:30:13;100104.91;;;6.32;100.00
49835;BME280;35729;52.090;13.162;2023-11-19T08:32:41;100103.03;;;6.40;100.00
49835;BME280;35729;52.090;13.162;2023-11-19T08:35:10;100109.00;;;6.48;100.00
49835;BME280;35729;52.090;13.162;2023-11-19T08:37:38;100108.88;;;6.56;100.00
49835;BME280;35729;52.090;13.162;2023-11-19T08:40:11;100107.03;;;6.63;100.00
49835;BME280;35729;52.090;13.162;2023-11-19T08:42:39;100117.34;;;6.71;100.00
49835;BME280;35729;52.090;13.162;2023-11-19T08:45:08;100108.53;;;6.78;100.00
49835;BME280;35729;52.090;13.162;2023-11-19T08:47:38;100104.97;;;6.83;100.00
49835;BME280;35729;52.090;13.162;2023-11-19T08:50:07;100117.06;;;6.89;100.00
49835;BME280;35729;52.090;13.162;2023-11-19T08:52:35;100110.00;;;6.94;100.00
49835;BME280;35729;52.090;13.162;2023-11-19T08:55:04;100109.03;;;7.01;100.00
49835;BME280;35729;52.090;13.162;2023-11-19T08:57:37;100099.38;;;7.07;100.00
49835;BME280;35729;52.090;13.162;2023-11-19T09:00:07;100112.31;;;7.11;100.00
49835;BME280;35729;52.090;13.162;2023-11-19T09:02:36;100116.56;;;7.17;100.00
49835;BME280;35729;52.090;13.162;2023-11-19T09:05:06;100128.63;;;7.23;100.00
49835;BME280;35729;52.090;13.162;2023-11-19T09:07:35;100129.47;;;7.25;100.00
49835;BME280;35729;52.090;13.162;2023-11-19T09:10:04;100129.38;;;7.31;100.00
49835;BME280;35729;52.090;13.162;2023-11-19T09:12:36;100127.56;;;7.34;100.00
49835;BME280;35729;52.090;13.162;2023-11-19T09:15:06;100118.75;;;7.40;100.00
49835;BME280;35729;52.090;13.162;2023-11-19T09:17:36;100116.06;;;7.45;100.00
49835;BME280;35729;52.090;13.162;2023-11-19T09:20:06;100122.91;;;7.50;100.00
49835;BME280;35729;52.090;13.162;2023-11-19T09:22:37;100121.94;;;7.56;100.00
49835;BME280;35729;52.090;13.162;2023-11-19T09:25:07;100117.47;;;7.63;100.00
49835;BME280;35729;52.090;13.162;2023-11-19T09:27:38;100114.75;;;7.68;100.00
49835;BME280;35729;52.090;13.162;2023-11-19T09:30:08;100121.59;;;7.75;100.00
49835;BME280;35729;52.090;13.162;2023-11-19T09:32:36;100113.63;;;7.81;100.00
49835;BME280;35729;52.090;13.162;2023-11-19T09:35:06;100118.72;;;7.87;100.00
49835;BME280;35729;52.090;13.162;2023-11-19T09:37:38;100113.38;;;7.93;100.00
49835;BME280;35729;52.090;13.162;2023-11-19T09:40:07;100112.34;;;8.01;100.00
49835;BME280;35729;52.090;13.162;2023-11-19T09:42:43;100117.41;;;8.08;100.00
49835;BME280;35729;52.090;13.162;2023-11-19T09:45:14;100119.06;;;8.12;100.00
49835;BME280;35729;52.090;13.162;2023-11-19T09:47:44;100107.63;;;8.18;100.00
49835;BME280;35729;52.090;13.162;2023-11-19T09:50:16;100107.50;;;8.24;100.00
49835;BME280;35729;52.090;13.162;2023-11-19T09:52:45;100112.59;;;8.30;100.00
49835;BME280;35729;52.090;13.162;2023-11-19T09:55:14;100100.31;;;8.34;100.00
49835;BME280;35729;52.090;13.162;2023-11-19T09:57:46;100105.34;;;8.42;100.00
49835;BME280;35729;52.090;13.162;2023-11-19T10:00:17;100113.06;;;8.50;100.00
49835;BME280;35729;52.090;13.162;2023-11-19T10:02:48;100105.84;;;8.59;100.00
49835;BME280;35729;52.090;13.162;2023-11-19T10:05:19;100107.50;;;8.63;100.00
49835;BME280;35729;52.090;13.162;2023-11-19T10:07:55;100105.53;;;8.72;100.00
49835;BME280;35729;52.090;13.162;2023-11-19T10:10:24;100102.78;;;8.78;100.00
49835;BME280;35729;52.090;13.162;2023-11-19T10:12:55;100109.69;;;8.80;100.00
49835;BME280;35729;52.090;13.162;2023-11-19T10:15:25;100106.81;;;8.91;100.00
49835;BME280;35729;52.090;13.162;2023-11-19T10:17:55;100102.31;;;8.96;100.00
49835;BME280;35729;52.090;13.162;2023-11-19T10:20:24;100110.88;;;9.03;100.00
49835;BME280;35729;52.090;13.162;2023-11-19T10:22:53;100112.53;;;9.07;100.00
49835;BME280;35729;52.090;13.162;2023-11-19T10:25:24;100096.69;;;9.12;100.00
49835;BME280;35729;52.090;13.162;2023-11-19T10:27:56;100107.06;;;9.17;100.00
49835;BME280;35729;52.090;13.162;2023-11-19T10:30:26;100092.94;;;9.22;100.00
49835;BME280;35729;52.090;13.162;2023-11-19T10:33:05;100111.97;;;9.27;100.00
49835;BME280;35729;52.090;13.162;2023-11-19T10:35:34;100097.88;;;9.33;100.00
49835;BME280;35729;52.090;13.162;2023-11-19T10:38:13;100090.81;;;9.37;100.00
49835;BME280;35729;52.090;13.162;2023-11-19T10:40:42;100085.44;;;9.41;100.00
49835;BME280;35729;52.090;13.162;2023-11-19T10:43:13;100080.06;;;9.46;100.00
49835;BME280;35729;52.090;13.162;2023-11-19T10:45:42;100085.25;;;9.49;100.00
49835;BME280;35729;52.090;13.162;2023-11-19T10:48:11;100078.97;;;9.55;100.00
49835;BME280;35729;52.090;13.162;2023-11-19T10:50:40;100077.03;;;9.61;100.00
49835;BME280;35729;52.090;13.162;2023-11-19T10:53:11;100080.38;;;9.67;100.00
49835;BME280;35729;52.090;13.162;2023-11-19T10:55:41;100076.59;;;9.77;100.00
49835;BME280;35729;52.090;13.162;2023-11-19T10:58:12;100081.50;;;9.88;100.00
49835;BME280;35729;52.090;13.162;2023-11-19T11:00:45;100085.63;;;9.97;100.00
49835;BME280;35729;52.090;13.162;2023-11-19T11:03:17;100094.91;;;10.07;100.00
49835;BME280;35729;52.090;13.162;2023-11-19T11:05:47;100071.91;;;10.17;100.00
49835;BME280;35729;52.090;13.162;2023-11-19T11:08:16;100081.31;;;10.24;100.00
49835;BME280;35729;52.090;13.162;2023-11-19T11:10:48;100072.34;;;10.31;100.00
49835;BME280;35729;52.090;13.162;2023-11-19T11:13:27;100078.25;;;10.39;100.00
49835;BME280;35729;52.090;13.162;2023-11-19T11:15:57;100063.97;;;10.48;100.00
49835;BME280;35729;52.090;13.162;2023-11-19T11:18:26;100070.78;;;10.54;100.00
49835;BME280;35729;52.090;13.162;2023-11-19T11:21:00;100064.50;;;10.59;100.00
49835;BME280;35729;52.090;13.162;2023-11-19T11:26:48;100079.91;;;10.70;100.00
49835;BME280;35729;52.090;13.162;2023-11-19T11:29:28;100078.75;;;10.78;100.00
49835;BME280;35729;52.090;13.162;2023-11-19T11:32:08;100089.09;;;10.82;100.00
49835;BME280;35729;52.090;13.162;2023-11-19T11:35:19;100083.59;;;10.90;97.20
49835;BME280;35729;52.090;13.162;2023-11-19T11:37:58;100083.34;;;10.98;99.78
49835;BME280;35729;52.090;13.162;2023-11-19T11:40:28;100085.75;;;11.04;100.00
49835;BME280;35729;52.090;13.162;2023-11-19T11:42:57;100074.28;;;11.06;99.75
49835;BME280;35729;52.090;13.162;2023-11-19T11:45:39;100083.03;;;11.07;98.00
49835;BME280;35729;52.090;13.162;2023-11-19T11:48:19;100085.75;;;11.04;94.23
49835;BME280;35729;52.090;13.162;2023-11-19T11:50:53;100078.84;;;11.01;99.04
49835;BME280;35729;52.090;13.162;2023-11-19T11:53:23;100078.97;;;10.98;99.10
49835;BME280;35729;52.090;13.162;2023-11-19T11:55:56;100071.25;;;10.94;97.99
49835;BME280;35729;52.090;13.162;2023-11-19T11:58:32;100072.25;;;10.89;100.00
49835;BME280;35729;52.090;13.162;2023-11-19T12:01:05;100073.94;;;10.90;100.00
49835;BME280;35729;52.090;13.162;2023-11-19T12:03:34;100078.47;;;10.87;97.22
49835;BME280;35729;52.090;13.162;2023-11-19T12:06:03;100067.97;;;10.87;99.08
49835;BME280;35729;52.090;13.162;2023-11-19T12:08:34;100057.47;;;10.87;99.50
49835;BME280;35729;52.090;13.162;2023-11-19T12:11:03;100040.84;;;10.86;100.00
49835;BME280;35729;52.090;13.162;2023-11-19T12:13:47;100046.22;;;10.83;95.74
49835;BME280;35729;52.090;13.162;2023-11-19T12:16:24;100046.31;;;10.80;98.65
49835;BME280;35729;52.090;13.162;2023-11-19T12:19:03;100050.66;;;10.81;99.01
49835;BME280;35729;52.090;13.162;2023-11-19T12:21:33;100043.66;;;10.82;98.64
49835;BME280;35729;52.090;13.162;2023-11-19T12:24:03;100049.75;;;10.82;98.75
49835;BME280;35729;52.090;13.162;2023-11-19T12:26:37;100049.75;;;10.82;98.33
49835;BME280;35729;52.090;13.162;2023-11-19T12:29:06;100039.13;;;10.85;99.27
49835;BME280;35729;52.090;13.162;2023-11-19T12:31:37;100047.94;;;10.84;97.83
49835;BME280;35729;52.090;13.162;2023-11-19T12:34:07;100055.69;;;10.87;98.56
49835;BME280;35729;52.090;13.162;2023-11-19T12:36:38;100055.69;;;10.87;96.25
49835;BME280;35729;52.090;13.162;2023-11-19T12:39:08;100052.09;;;10.90;98.39
49835;BME280;35729;52.090;13.162;2023-11-19T12:41:56;100057.34;;;10.90;97.41
49835;BME280;35729;52.090;13.162;2023-11-19T12:44:25;100057.31;;;10.91;97.84
49835;BME280;35729;52.090;13.162;2023-11-19T12:47:04;100047.69;;;10.92;97.61
49835;BME280;35729;52.090;13.162;2023-11-19T12:49:32;100049.34;;;10.95;96.64
49835;BME280;35729;52.090;13.162;2023-11-19T12:52:01;100062.28;;;10.99;98.43
49835;BME280;35729;52.090;13.162;2023-11-19T12:54:37;100049.00;;;11.04;97.25
49835;BME280;35729;52.090;13.162;2023-11-19T12:57:05;100043.53;;;11.10;96.42
49835;BME280;35729;52.090;13.162;2023-11-19T12:59:34;100042.38;;;11.19;95.92
49835;BME280;35729;52.090;13.162;2023-11-19T13:02:05;100050.13;;;11.22;93.49